Terminal Aerodrome Forecast
Issued by NWS Jackson, MS

Home | Current Version | Previous Version | Text Only | Print | Product List | Glossary On
Versions: 1 2 3 4 5 6 7 8 9 10 11 12 13
000
FTUS44 KJAN 020100 AAA
TAFJAN
TAF AMD
KJAN 020110Z 0201/0224 VRB04KT 6SM -RA BR SCT040 OVC080
     FM020300 VRB04KT P6SM SCT050 BKN090=

USA.gov is the U.S. government's official web portal to all federal, state and local government web resources and services.